Česky Dansk Deutsch English Español Suomi Français Magyar Italiano Nederlands norsk Polski Português svenska Türkçe

 

Het Weer

Fritzlar (Duitsland)

13:20, 21 augusti 2016 (GMT)

NWNNE
WE
SWSSE
Home            
Fritzlar Kassel / Calden Paderborn / Lippstadt Hessen Hanau Mebstetten / Albstadt Guetersloh Erfurt-Bindersleben Dortmund / Wickede Frankfurt / M-Flughafen Bueckeburg Wiesbaden Wunstorf Koeln / Bonn Hannover Braunschweig Muenster / Osnabrueck Mendig Essen Kitzingen Usa \ Af Giebelstadt Bad Kreuznach Celle

Om een weerknop op uw website of weblog te plaatsen, copieer onderstaande code en plak die in uw pagina. In het eerste vakje staat HTML-code, in het tweede vakje UBB-code.


Add to Google

Details

Wind speed:5 bf, 16 kn, 8.2 m/s, 18.4 miles/h, 29.6 km/h
Wind direction:WSW, 240°
Generella sikten:Över 10000 m, 10 km, 32800 ft, 6.2 miles
Clouds:Utspridda at 3000 ft, 914 m
Brutna at 4500 ft, 1372 m
Temperaturen:19°C, 66°F
Daggpunkt:10°C, 50°F
Lufttrycket:1018 hPa, 763.6 mmHg, 30.06 inHg, 1.005 atm
Relativa fuktigheten:55.9 %
METAR:ETHF 211320Z 24016KT 9999 SCT030 BKN045 19/10 Q1018 BLU

Snelkoppelingen

Actuele weersinformatie van de hele wereld. Voeg locaties toe met het plus (+) symbool. Deze snelkoppelingen kunnen worden toegevoegd aan Google.

Lid van de Technetium groep

website free tracking
StatCounter NetStat W3C Validator

07-07-2022 04:20:05
astro.technetium.be money.technetium.be phote.technetium.be tafeltennistafel.technetium.be www.ligfiets.net